Archival Weather

Republic

Farmingdale, New York (KFRG)

Report from: Thursday, January 25, 2024 5:20 AM EST
Current time: Monday, June 17, 2024 3:05 AM EDT

Current weather – Weather history – Daily summaries
Weather forecast

Present weatherMist
Temperature7.8°C (46.0°F)
Wind chill7.1°C (44.8°F)
Dew point7.2°C (45.0°F)
Winds 3 kts (1.5 m/s, 3.5 mph) South-Southwest (210°)
Visibility3 mi. (4.8 km)
Clouds Ceiling: Broken clouds 400 ft. (122 m)
Overcast 900 ft. (274 m)
Altimeter30.12 in.Hg (1020 mB)
Relative humidity96 %
Density altitude-948 ft. (-289 m)
Remarks Fully automated report
Automated weather observing station with precipitation discriminator
Present weather sensor not operating
Flight conditions Low Instrument Meteorological Conditions
Raw dataKFRG 251020Z AUTO 21003KT 3SM BR BKN004 OVC009 08/07 A3012 RMK AO2 T00780072 PWINO
An error has occurred. This application may no longer respond until reloaded. Reload 🗙